»·PEaware :: N5755D KBFL-KMHV

N5755D :: KBFL-KMHV

FLIGHT INFORMATION

Flight Status: Arrived
Operator: Privately registered:
United States
More flights under this callsign
Pilot: Timothy N. (16038)
Aircraft: CESSNA 172 SKYHAWK
(C172)
More flights by this aircraft type
Origin: KBFL Meadows
United States
Destination: KMHV Mojave
United States
More flights between these airports :: More routes between these airports
Route: +
File this flight plan on PilotEdge
Remarks: cat-6 test
Altitude:
(Current/Filed)
7,500ft
Speed:
(Current/Filed)
100kts
Departed: 20-Jul-17 05:39 PM
Arrived: 20-Jul-17 06:14 PM
Distance/Time
Traveled:
50nm/0:35
Distance/Time
To Go:
Arrived

Flight Plot

Page will automatically refresh every two minutes.


Map Options




Map Legend


Flown Route
Filed Route
Departure Airport
Arrival Airport
Navaid (VOR, NDB)
Fix

Horizontal Profiles

Position Reports

Time Latitude Longitude Heading Altitude Ground
Speed
20-Jul-17 17:19 35.432792 -119.051875 217 510ft 0kts
20-Jul-17 17:20 35.432792 -119.051875 217 510ft 0kts
20-Jul-17 17:21 35.432792 -119.051875 217 510ft 0kts
20-Jul-17 17:22 35.432792 -119.051875 217 510ft 0kts
20-Jul-17 17:23 35.432792 -119.051875 217 510ft 0kts
20-Jul-17 17:24 35.432792 -119.051875 217 510ft 0kts
20-Jul-17 17:25 35.432792 -119.051875 217 510ft 0kts
20-Jul-17 17:26 35.432792 -119.051875 217 510ft 0kts
20-Jul-17 17:27 35.432792 -119.051875 217 510ft 0kts
20-Jul-17 17:28 35.432792 -119.051875 217 510ft 0kts
20-Jul-17 17:29 35.432792 -119.051875 217 510ft 0kts
20-Jul-17 17:30 35.432792 -119.051875 217 510ft 0kts
20-Jul-17 17:31 35.432792 -119.051875 217 510ft 0kts
20-Jul-17 17:32 35.432792 -119.051875 217 510ft 0kts
20-Jul-17 17:33 35.432792 -119.051875 217 510ft 0kts
20-Jul-17 17:34 35.432792 -119.051875 217 510ft 0kts
20-Jul-17 17:35 35.432792 -119.051875 217 510ft 0kts
20-Jul-17 17:36 35.432782 -119.051884 216 510ft 0kts
20-Jul-17 17:37 35.431142 -119.050738 133 510ft 14kts
20-Jul-17 17:38 35.428369 -119.047368 137 510ft 18kts
20-Jul-17 17:39 35.425737 -119.044741 208 510ft 0kts
20-Jul-17 17:40 35.425737 -119.044741 208 510ft 0kts
20-Jul-17 17:41 35.425485 -119.045327 265 510ft 26kts
20-Jul-17 17:42 35.435414 -119.058165 315 582ft 93kts
20-Jul-17 17:43 35.454886 -119.071692 18 1562ft 87kts
20-Jul-17 17:44 35.458825 -119.049673 145 2450ft 83kts
20-Jul-17 17:45 35.439669 -119.032128 143 3249ft 87kts
20-Jul-17 17:46 35.420897 -119.013332 136 4023ft 88kts
20-Jul-17 17:47 35.406229 -118.989650 114 4752ft 89kts
20-Jul-17 17:48 35.397729 -118.960995 108 5437ft 90kts
20-Jul-17 17:49 35.384542 -118.935435 136 6082ft 90kts
20-Jul-17 17:50 35.365594 -118.914817 128 6679ft 92kts
20-Jul-17 17:51 35.354079 -118.886827 108 7250ft 93kts
20-Jul-17 17:52 35.348044 -118.854263 102 7569ft 109kts
20-Jul-17 17:53 35.339143 -118.822468 113 7511ft 123kts
20-Jul-17 17:54 35.324952 -118.785348 117 7603ft 118kts
20-Jul-17 17:55 35.308323 -118.749132 121 7553ft 124kts
20-Jul-17 17:56 35.291698 -118.712205 116 7488ft 126kts
20-Jul-17 17:57 35.275572 -118.675478 117 7545ft 119kts
20-Jul-17 17:58 35.259532 -118.639808 119 7520ft 126kts
20-Jul-17 17:59 35.240803 -118.604985 128 7584ft 119kts
20-Jul-17 18:00 35.223211 -118.570358 115 7615ft 120kts
20-Jul-17 18:01 35.208479 -118.533234 120 7663ft 118kts
20-Jul-17 18:02 35.195931 -118.495209 109 7522ft 128kts
20-Jul-17 18:03 35.184982 -118.459693 113 7538ft 104kts
20-Jul-17 18:04 35.173461 -118.429025 115 7548ft 98kts
20-Jul-17 18:05 35.161866 -118.399069 114 7535ft 99kts
20-Jul-17 18:06 35.149814 -118.368274 118 7477ft 100kts
20-Jul-17 18:07 35.137954 -118.340885 117 7526ft 97kts
20-Jul-17 18:08 35.127561 -118.311348 107 7497ft 98kts
20-Jul-17 18:09 35.115092 -118.282154 116 7559ft 91kts
20-Jul-17 18:10 35.101557 -118.252138 118 6747ft 115kts
20-Jul-17 18:11 35.087457 -118.217624 117 5765ft 111kts
20-Jul-17 18:12 35.073760 -118.193045 128 4828ft 77kts
20-Jul-17 18:13 35.060497 -118.171653 124 3662ft 73kts
20-Jul-17 18:14 35.049658 -118.155550 134 3531ft 53kts
20-Jul-17 18:15 35.039414 -118.140860 126 3762ft 56kts
20-Jul-17 18:16 35.044645 -118.130901 321 3113ft 67kts
20-Jul-17 18:17 35.053572 -118.141639 316 2795ft 22kts
20-Jul-17 18:18 35.057576 -118.147123 274 2795ft 12kts
20-Jul-17 18:19 35.057578 -118.147923 263 2795ft 6kts
20-Jul-17 18:20 35.057067 -118.148855 35 2795ft 0kts

Navigation Log

Ident Type
Flight plan parsing failed, navigation log unavailable